createdAt,value
2022-12-31T00:00:40.796Z,83.10
2022-12-31T00:05:42.526Z,84.42
2022-12-31T00:10:44.672Z,85.00
2022-12-31T00:15:46.508Z,85.44
2022-12-31T00:20:48.181Z,85.63
2022-12-31T00:25:49.890Z,85.60
2022-12-31T00:30:51.648Z,84.80
2022-12-31T00:35:53.406Z,82.43
2022-12-31T00:40:55.144Z,81.91
2022-12-31T00:45:56.999Z,82.15
2022-12-31T00:50:59.826Z,82.30
2022-12-31T00:56:11.601Z,82.24
2022-12-31T01:01:21.490Z,82.55
2022-12-31T01:06:23.460Z,82.82
2022-12-31T01:11:29.367Z,82.64
2022-12-31T01:16:48.786Z,82.47
2022-12-31T01:21:51.396Z,82.29
2022-12-31T01:26:56.004Z,82.37
2022-12-31T01:31:57.799Z,82.33
2022-12-31T01:36:59.835Z,82.49
2022-12-31T01:42:01.578Z,82.73
2022-12-31T01:47:06.015Z,82.88
2022-12-31T01:52:17.372Z,83.17
2022-12-31T01:57:19.889Z,83.18
2022-12-31T02:02:21.967Z,83.08
2022-12-31T02:07:24.183Z,83.01
2022-12-31T02:12:25.979Z,83.17
2022-12-31T02:17:40.235Z,83.14
2022-12-31T02:23:06.466Z,83.03
2022-12-31T02:28:39.653Z,83.09
2022-12-31T02:33:50.989Z,83.43
2022-12-31T02:38:52.782Z,83.63
2022-12-31T02:43:54.517Z,83.81
2022-12-31T02:49:18.154Z,83.93
2022-12-31T02:54:31.076Z,83.89
2022-12-31T03:00:16.416Z,84.00
2022-12-31T03:05:23.241Z,83.86
2022-12-31T03:10:25.575Z,83.93
2022-12-31T03:15:30.405Z,83.68
2022-12-31T03:20:52.431Z,83.51
2022-12-31T03:25:56.468Z,83.23
2022-12-31T03:31:03.244Z,83.04
2022-12-31T03:36:07.507Z,82.78
2022-12-31T03:41:11.105Z,82.59
2022-12-31T03:46:12.853Z,82.37
2022-12-31T03:51:14.616Z,82.17
2022-12-31T03:56:16.312Z,81.85
2022-12-31T04:01:18.202Z,81.76
2022-12-31T04:06:19.983Z,81.54
2022-12-31T04:11:21.738Z,81.42
2022-12-31T04:16:23.446Z,81.23
2022-12-31T04:21:26.841Z,81.20
2022-12-31T04:26:32.069Z,81.14
2022-12-31T04:31:33.913Z,81.27
2022-12-31T04:36:35.869Z,81.20
2022-12-31T04:41:37.891Z,81.27
2022-12-31T04:46:39.691Z,81.58
2022-12-31T04:51:41.548Z,81.64
2022-12-31T04:56:43.317Z,81.83
2022-12-31T05:01:45.133Z,81.89
2022-12-31T05:06:47.129Z,82.15
2022-12-31T05:11:48.920Z,82.25
2022-12-31T05:16:51.211Z,82.18
2022-12-31T05:22:11.535Z,82.10
2022-12-31T05:27:13.378Z,82.52
2022-12-31T05:32:15.147Z,82.79
2022-12-31T05:37:16.860Z,83.09
2022-12-31T05:42:18.733Z,83.29
2022-12-31T05:47:20.694Z,83.61
2022-12-31T05:52:22.461Z,83.59
2022-12-31T05:57:24.236Z,83.37
2022-12-31T06:02:26.743Z,83.35
2022-12-31T06:07:28.706Z,83.35
2022-12-31T06:12:30.647Z,83.20
2022-12-31T06:17:32.660Z,82.93
2022-12-31T06:22:34.435Z,83.12
2022-12-31T06:27:36.293Z,83.29
2022-12-31T06:32:39.354Z,83.22
2022-12-31T06:37:41.146Z,83.21
2022-12-31T06:42:42.929Z,83.21
2022-12-31T06:47:44.611Z,83.30
2022-12-31T06:52:46.393Z,83.43
2022-12-31T06:57:48.388Z,83.45
2022-12-31T07:03:09.759Z,83.37
2022-12-31T07:08:33.018Z,83.34
2022-12-31T07:13:53.678Z,83.48
2022-12-31T07:19:35.950Z,83.56
2022-12-31T07:24:37.936Z,83.30
2022-12-31T07:30:01.941Z,83.36
2022-12-31T07:35:12.219Z,83.30
2022-12-31T07:40:52.061Z,83.08
2022-12-31T07:46:12.159Z,82.91
2022-12-31T07:51:14.330Z,82.72
2022-12-31T07:56:16.114Z,82.45
2022-12-31T08:01:34.891Z,82.25
2022-12-31T08:06:48.809Z,81.90
2022-12-31T08:11:58.366Z,81.51
2022-12-31T08:17:00.656Z,81.36
2022-12-31T08:22:24.035Z,81.06
2022-12-31T08:27:53.478Z,80.21
2022-12-31T08:33:18.569Z,79.81
2022-12-31T08:38:45.598Z,79.48
2022-12-31T08:44:05.866Z,79.25
2022-12-31T08:49:09.832Z,79.23
2022-12-31T08:54:12.428Z,79.04
2022-12-31T08:59:42.875Z,79.07
2022-12-31T09:05:00.053Z,79.15
2022-12-31T09:10:20.852Z,79.15
2022-12-31T09:15:33.955Z,79.09
2022-12-31T09:20:44.739Z,78.93
2022-12-31T09:26:22.504Z,79.14
2022-12-31T09:31:48.907Z,78.98
2022-12-31T09:37:05.007Z,78.63
2022-12-31T09:42:51.827Z,78.49
2022-12-31T09:48:35.989Z,78.28
2022-12-31T09:53:47.101Z,77.85
2022-12-31T09:59:07.240Z,77.63
2022-12-31T10:04:27.771Z,77.93
2022-12-31T10:10:03.758Z,78.10
2022-12-31T10:15:34.959Z,77.97
2022-12-31T10:21:01.244Z,77.61
2022-12-31T10:26:06.143Z,77.30
2022-12-31T10:31:34.413Z,77.13
2022-12-31T10:36:51.917Z,77.19
2022-12-31T10:42:05.746Z,77.46
2022-12-31T10:47:52.803Z,77.00
2022-12-31T10:53:11.446Z,76.36
2022-12-31T10:58:34.831Z,76.18
2022-12-31T11:03:58.854Z,75.99
2022-12-31T11:09:27.459Z,75.65
2022-12-31T11:15:07.695Z,75.41
2022-12-31T11:20:31.612Z,75.11
2022-12-31T11:25:38.602Z,75.10
2022-12-31T11:31:20.100Z,75.31
2022-12-31T11:36:37.716Z,75.42
2022-12-31T11:41:50.973Z,75.39
2022-12-31T11:46:59.127Z,75.32
2022-12-31T11:52:22.536Z,75.32
2022-12-31T11:57:34.981Z,75.16
2022-12-31T12:02:43.955Z,74.95
2022-12-31T12:07:47.054Z,74.80
2022-12-31T12:12:49.724Z,74.74
2022-12-31T12:18:01.709Z,74.60
2022-12-31T12:23:16.116Z,74.65
2022-12-31T12:28:23.910Z,74.81
2022-12-31T12:33:26.212Z,74.91
2022-12-31T12:38:27.905Z,75.03
2022-12-31T12:43:32.440Z,75.05
2022-12-31T12:48:44.886Z,75.14
2022-12-31T12:54:14.237Z,75.23
2022-12-31T12:59:43.888Z,75.33
2022-12-31T13:05:27.883Z,75.26
2022-12-31T13:11:09.111Z,75.21
2022-12-31T13:16:40.902Z,75.15
2022-12-31T13:21:55.797Z,75.11
2022-12-31T13:27:04.651Z,75.14
2022-12-31T13:32:11.139Z,75.15
2022-12-31T13:37:39.566Z,75.13
2022-12-31T13:42:55.151Z,75.08
2022-12-31T13:48:05.776Z,74.90
2022-12-31T13:53:20.197Z,74.77
2022-12-31T13:58:40.961Z,74.70
2022-12-31T14:04:14.488Z,74.75
2022-12-31T14:09:28.326Z,74.78
2022-12-31T14:14:46.113Z,74.98
2022-12-31T14:19:55.931Z,75.14
2022-12-31T14:25:00.840Z,75.15
2022-12-31T14:30:27.816Z,75.32
2022-12-31T14:35:37.760Z,75.44
2022-12-31T14:41:13.109Z,75.48
2022-12-31T14:46:33.156Z,75.67
2022-12-31T14:51:35.124Z,75.72
2022-12-31T14:56:41.824Z,75.83
2022-12-31T15:01:46.742Z,75.83
2022-12-31T15:07:04.365Z,75.88
2022-12-31T15:12:25.045Z,75.77
2022-12-31T15:17:35.701Z,75.89
2022-12-31T15:22:40.452Z,75.93
2022-12-31T15:27:47.162Z,75.96
2022-12-31T15:32:49.174Z,75.88
2022-12-31T15:38:16.942Z,75.80
2022-12-31T15:43:25.040Z,75.69
2022-12-31T15:48:46.189Z,75.63
2022-12-31T15:53:56.622Z,75.60
2022-12-31T15:59:01.669Z,75.63
2022-12-31T16:04:07.778Z,75.71
2022-12-31T16:09:36.147Z,75.77
2022-12-31T16:14:44.895Z,75.85
2022-12-31T16:19:47.150Z,76.03
2022-12-31T16:30:32.074Z,75.95
2022-12-31T16:35:36.881Z,75.80
2022-12-31T16:40:40.507Z,75.65
2022-12-31T16:45:42.313Z,75.38
2022-12-31T16:50:47.012Z,75.13
2022-12-31T16:56:09.392Z,75.04
2022-12-31T17:01:19.180Z,74.93
2022-12-31T17:06:22.326Z,74.71
2022-12-31T17:11:30.281Z,74.72
2022-12-31T17:16:34.872Z,74.73
2022-12-31T17:21:36.661Z,74.77
2022-12-31T17:26:38.518Z,74.80
2022-12-31T17:31:43.705Z,74.78
2022-12-31T17:37:00.156Z,74.80
2022-12-31T17:42:02.028Z,74.75
2022-12-31T17:47:04.274Z,74.79
2022-12-31T17:52:11.994Z,74.67
2022-12-31T17:57:28.116Z,74.88
2022-12-31T18:02:29.907Z,74.80
2022-12-31T18:07:32.022Z,74.85
2022-12-31T18:12:35.441Z,74.86
2022-12-31T18:17:37.212Z,74.88
2022-12-31T18:22:41.244Z,74.71
2022-12-31T18:27:43.086Z,74.76
2022-12-31T18:32:45.959Z,74.70
2022-12-31T18:37:47.687Z,74.60
2022-12-31T18:42:49.464Z,74.57
2022-12-31T18:47:51.203Z,74.44
2022-12-31T18:52:52.895Z,74.49
2022-12-31T18:57:54.623Z,74.32
2022-12-31T19:02:56.476Z,74.27
2022-12-31T19:07:58.774Z,74.10
2022-12-31T19:13:00.531Z,73.96
2022-12-31T19:18:03.199Z,73.65
2022-12-31T19:23:05.725Z,73.37
2022-12-31T19:28:16.144Z,73.16
2022-12-31T19:33:18.677Z,72.94
2022-12-31T19:38:23.852Z,72.80
2022-12-31T19:43:25.635Z,72.56
2022-12-31T19:48:32.554Z,72.38
2022-12-31T19:53:34.729Z,72.14
2022-12-31T19:58:36.524Z,71.99
2022-12-31T20:03:38.313Z,71.86
2022-12-31T20:08:43.391Z,71.76
2022-12-31T20:13:47.395Z,71.72
2022-12-31T20:18:50.791Z,71.73
2022-12-31T20:23:54.046Z,71.81
2022-12-31T20:28:55.738Z,71.82
2022-12-31T20:33:57.520Z,71.85
2022-12-31T20:38:59.283Z,71.92
2022-12-31T20:44:01.354Z,71.89
2022-12-31T20:49:04.813Z,71.89
2022-12-31T20:54:10.187Z,71.77
2022-12-31T20:59:11.971Z,71.65
2022-12-31T21:04:13.872Z,71.45
2022-12-31T21:09:15.752Z,71.31
2022-12-31T21:14:17.495Z,71.31
2022-12-31T21:19:19.294Z,71.37
2022-12-31T21:24:24.063Z,71.38
2022-12-31T21:29:28.845Z,71.23
2022-12-31T21:34:34.518Z,71.22
2022-12-31T21:39:36.277Z,71.05
2022-12-31T21:44:38.019Z,70.94
2022-12-31T21:49:39.738Z,70.85
2022-12-31T21:55:00.246Z,70.79
2022-12-31T22:05:47.371Z,70.83
2022-12-31T22:10:52.753Z,70.96
2022-12-31T22:16:03.997Z,71.01
2022-12-31T22:21:19.208Z,71.08
2022-12-31T22:26:25.293Z,71.17
2022-12-31T22:31:32.667Z,71.21
2022-12-31T22:36:34.650Z,71.23
2022-12-31T22:41:36.530Z,71.35
2022-12-31T22:46:38.323Z,71.50
2022-12-31T22:51:57.470Z,71.69
2022-12-31T22:57:01.287Z,71.75
2022-12-31T23:02:03.118Z,71.87
2022-12-31T23:07:04.861Z,71.74
2022-12-31T23:12:08.801Z,71.68
2022-12-31T23:17:38.011Z,71.59
2022-12-31T23:22:58.556Z,71.52
2022-12-31T23:28:00.918Z,71.36
2022-12-31T23:33:02.727Z,71.34
2022-12-31T23:38:04.471Z,71.24
2022-12-31T23:43:08.036Z,71.13
2022-12-31T23:48:09.761Z,71.04
2022-12-31T23:53:11.559Z,70.90
2022-12-31T23:58:13.403Z,70.81
